createdAt,value
2022-08-24T00:02:12.387Z,17.76
2022-08-24T00:04:38.932Z,17.71
2022-08-24T00:07:21.475Z,17.66
2022-08-24T00:09:54.077Z,17.58
2022-08-24T00:12:20.542Z,17.51
2022-08-24T00:14:47.009Z,17.44
2022-08-24T00:17:15.887Z,17.40
2022-08-24T00:19:42.513Z,17.36
2022-08-24T00:22:10.069Z,17.38
2022-08-24T00:24:36.589Z,17.37
2022-08-24T00:27:03.139Z,17.29
2022-08-24T00:29:29.756Z,17.16
2022-08-24T00:31:56.249Z,17.19
2022-08-24T00:34:22.783Z,17.18
2022-08-24T00:36:49.203Z,17.10
2022-08-24T00:39:15.672Z,17.07
2022-08-24T00:41:43.129Z,17.00
2022-08-24T00:44:10.336Z,16.95
2022-08-24T00:46:49.680Z,16.91
2022-08-24T00:49:25.552Z,16.91
2022-08-24T00:51:57.047Z,16.88
2022-08-24T00:54:23.659Z,16.88
2022-08-24T00:56:51.644Z,16.90
2022-08-24T00:59:20.029Z,16.90
2022-08-24T01:01:47.476Z,16.84
2022-08-24T01:04:16.693Z,16.73
2022-08-24T01:06:43.138Z,16.65
2022-08-24T01:09:09.611Z,16.62
2022-08-24T01:11:36.859Z,16.55
2022-08-24T01:14:03.745Z,16.43
2022-08-24T01:16:49.016Z,16.33
2022-08-24T01:19:24.934Z,16.33
2022-08-24T01:21:54.883Z,16.36
2022-08-24T01:24:21.359Z,16.35
2022-08-24T01:26:49.253Z,16.34
2022-08-24T01:29:20.223Z,16.36
2022-08-24T01:31:50.346Z,16.29
2022-08-24T01:34:16.883Z,16.26
2022-08-24T01:36:51.380Z,16.23
2022-08-24T01:39:21.156Z,16.21
2022-08-24T01:41:47.990Z,16.20
2022-08-24T01:44:14.746Z,16.19
2022-08-24T01:46:45.022Z,16.17
2022-08-24T01:49:12.076Z,16.19
2022-08-24T01:51:38.608Z,16.16
2022-08-24T01:54:05.783Z,16.18
2022-08-24T01:56:33.070Z,16.19
2022-08-24T01:58:59.995Z,16.21
2022-08-24T02:01:27.041Z,16.18
2022-08-24T02:03:53.516Z,16.12
2022-08-24T02:06:19.971Z,16.04
2022-08-24T02:08:46.409Z,15.99
2022-08-24T02:11:12.885Z,15.95
2022-08-24T02:13:39.798Z,15.93
2022-08-24T02:16:07.117Z,15.88
2022-08-24T02:18:34.278Z,15.84
2022-08-24T02:21:00.955Z,15.77
2022-08-24T02:23:28.764Z,15.77
2022-08-24T02:25:56.112Z,15.76
2022-08-24T02:28:22.579Z,15.72
2022-08-24T02:30:49.230Z,15.64
2022-08-24T02:33:15.720Z,15.60
2022-08-24T02:35:42.279Z,15.57
2022-08-24T02:38:09.994Z,15.51
2022-08-24T02:40:36.500Z,15.52
2022-08-24T02:43:03.203Z,15.51
2022-08-24T02:45:29.805Z,15.54
2022-08-24T02:47:56.296Z,15.45
2022-08-24T02:50:22.861Z,15.39
2022-08-24T02:52:49.286Z,15.31
2022-08-24T02:55:20.172Z,15.20
2022-08-24T02:57:47.905Z,15.11
2022-08-24T03:00:15.421Z,15.03
2022-08-24T03:02:41.894Z,15.03
2022-08-24T03:05:08.972Z,15.00
2022-08-24T03:07:35.446Z,15.02
2022-08-24T03:10:02.075Z,14.99
2022-08-24T03:12:28.500Z,14.92
2022-08-24T03:14:55.433Z,14.89
2022-08-24T03:17:23.438Z,14.84
2022-08-24T03:19:50.469Z,14.80
2022-08-24T03:22:17.222Z,14.78
2022-08-24T03:24:45.117Z,14.77
2022-08-24T03:27:14.107Z,14.72
2022-08-24T03:29:40.919Z,14.65
2022-08-24T03:32:08.191Z,14.64
2022-08-24T03:34:34.720Z,14.66
2022-08-24T03:37:01.163Z,14.67
2022-08-24T03:39:27.640Z,14.66
2022-08-24T03:41:54.062Z,14.52
2022-08-24T03:44:23.212Z,14.47
2022-08-24T03:46:49.832Z,14.39
2022-08-24T03:49:16.303Z,14.34
2022-08-24T03:51:42.762Z,14.30
2022-08-24T03:54:09.536Z,14.29
2022-08-24T03:56:36.053Z,14.36
2022-08-24T03:59:02.502Z,14.39
2022-08-24T04:01:28.997Z,14.44
2022-08-24T04:03:55.810Z,14.43
2022-08-24T04:06:22.724Z,14.42
2022-08-24T04:08:49.237Z,14.39
2022-08-24T04:11:17.890Z,14.39
2022-08-24T04:13:44.540Z,14.37
2022-08-24T04:16:12.963Z,14.35
2022-08-24T04:18:39.800Z,14.31
2022-08-24T04:21:06.435Z,14.33
2022-08-24T04:23:47.293Z,14.30
2022-08-24T04:26:14.801Z,14.25
2022-08-24T04:28:41.384Z,14.21
2022-08-24T04:31:08.025Z,14.20
2022-08-24T04:33:34.502Z,14.21
2022-08-24T04:36:01.021Z,14.23
2022-08-24T04:38:27.452Z,14.26
2022-08-24T04:40:54.062Z,14.26
2022-08-24T04:43:20.470Z,14.22
2022-08-24T04:45:48.070Z,14.18
2022-08-24T04:48:14.685Z,14.17
2022-08-24T04:50:41.817Z,14.12
2022-08-24T04:53:08.629Z,14.16
2022-08-24T04:55:41.044Z,14.19
2022-08-24T04:58:07.472Z,14.22
2022-08-24T05:00:33.945Z,14.25
2022-08-24T05:03:00.486Z,14.29
2022-08-24T05:05:27.003Z,14.32
2022-08-24T05:07:56.446Z,14.32
2022-08-24T05:10:23.362Z,14.38
2022-08-24T05:12:49.771Z,14.47
2022-08-24T05:15:16.414Z,14.52
2022-08-24T05:17:50.346Z,14.53
2022-08-24T05:20:17.947Z,14.54
2022-08-24T05:22:45.021Z,14.57
2022-08-24T05:25:11.490Z,14.60
2022-08-24T05:27:37.953Z,14.65
2022-08-24T05:30:04.979Z,14.67
2022-08-24T05:32:31.457Z,14.71
2022-08-24T05:34:59.695Z,14.82
2022-08-24T05:37:26.638Z,14.87
2022-08-24T05:39:53.154Z,14.93
2022-08-24T05:42:19.828Z,15.01
2022-08-24T05:44:46.319Z,15.09
2022-08-24T05:47:13.579Z,15.21
2022-08-24T05:49:41.703Z,15.31
2022-08-24T05:52:08.867Z,15.42
2022-08-24T05:54:35.480Z,15.57
2022-08-24T05:57:05.064Z,15.71
2022-08-24T05:59:31.923Z,15.86
2022-08-24T06:01:58.554Z,16.05
2022-08-24T06:04:25.835Z,16.25
2022-08-24T06:06:52.880Z,16.52
2022-08-24T06:09:19.358Z,16.85
2022-08-24T06:11:46.910Z,17.17
2022-08-24T06:14:14.427Z,17.46
2022-08-24T06:16:41.783Z,17.65
2022-08-24T06:19:09.384Z,17.92
2022-08-24T06:21:36.242Z,18.21
2022-08-24T06:24:02.758Z,18.47
2022-08-24T06:26:50.106Z,18.78
2022-08-24T06:29:17.357Z,19.17
2022-08-24T06:31:44.542Z,19.44
2022-08-24T06:34:14.041Z,19.59
2022-08-24T06:36:40.618Z,19.71
2022-08-24T06:39:07.854Z,19.76
2022-08-24T06:41:37.046Z,19.98
2022-08-24T06:44:03.477Z,20.13
2022-08-24T06:46:32.884Z,20.41
2022-08-24T06:48:59.764Z,20.73
2022-08-24T06:51:26.236Z,21.02
2022-08-24T06:53:54.524Z,21.25
2022-08-24T06:56:20.972Z,21.43
2022-08-24T06:58:47.971Z,21.57
2022-08-24T07:01:15.888Z,21.69
2022-08-24T07:03:42.615Z,21.88
2022-08-24T07:06:09.345Z,22.05
2022-08-24T07:08:36.256Z,22.04
2022-08-24T07:11:03.089Z,22.06
2022-08-24T07:13:31.158Z,22.27
2022-08-24T07:15:57.883Z,22.39
2022-08-24T07:18:24.822Z,22.60
2022-08-24T07:20:53.466Z,22.84
2022-08-24T07:23:20.247Z,23.03
2022-08-24T07:25:49.703Z,23.17
2022-08-24T07:28:17.021Z,23.33
2022-08-24T07:30:54.083Z,23.34
2022-08-24T07:33:20.561Z,23.12
2022-08-24T07:35:47.221Z,23.30
2022-08-24T07:38:13.756Z,23.34
2022-08-24T07:41:05.158Z,23.59
2022-08-24T07:43:26.690Z,23.59
2022-08-24T07:45:53.212Z,23.88
2022-08-24T07:48:19.655Z,24.23
2022-08-24T07:50:46.479Z,24.42
2022-08-24T07:53:15.149Z,24.22
2022-08-24T07:55:52.079Z,24.52
2022-08-24T07:58:18.847Z,24.75
2022-08-24T08:00:48.525Z,24.83
2022-08-24T08:03:15.014Z,25.02
2022-08-24T08:05:41.655Z,24.93
2022-08-24T08:08:08.143Z,24.90
2022-08-24T08:10:36.214Z,24.87
2022-08-24T08:13:03.541Z,25.03
2022-08-24T08:15:31.121Z,25.05
2022-08-24T08:17:57.967Z,25.34
2022-08-24T08:20:24.539Z,25.49
2022-08-24T08:23:09.739Z,25.72
2022-08-24T08:25:38.376Z,25.81
2022-08-24T08:28:18.455Z,25.89
2022-08-24T08:30:53.676Z,26.15
2022-08-24T08:33:20.392Z,26.23
2022-08-24T08:35:47.092Z,26.27
2022-08-24T08:38:13.567Z,26.26
2022-08-24T08:40:55.421Z,26.36
2022-08-24T08:43:42.535Z,26.66
2022-08-24T08:46:13.437Z,26.46
2022-08-24T08:48:42.868Z,26.35
2022-08-24T08:51:28.308Z,26.65
2022-08-24T08:54:07.114Z,26.66
2022-08-24T08:56:45.866Z,26.74
2022-08-24T08:59:31.041Z,26.54
2022-08-24T09:02:07.413Z,27.07
2022-08-24T09:04:50.654Z,27.32
2022-08-24T09:07:20.236Z,27.23
2022-08-24T09:10:05.088Z,27.44
2022-08-24T09:12:36.065Z,27.85
2022-08-24T09:15:38.035Z,27.78
2022-08-24T09:18:11.078Z,28.02
2022-08-24T09:20:41.411Z,28.31
2022-08-24T09:23:40.696Z,28.54
2022-08-24T09:26:19.090Z,28.56
2022-08-24T09:29:02.080Z,28.69
2022-08-24T09:34:07.930Z,29.03
2022-08-24T09:36:46.761Z,29.25
2022-08-24T09:39:14.421Z,29.59
2022-08-24T09:41:59.182Z,29.75
2022-08-24T09:44:58.449Z,29.48
2022-08-24T09:47:44.204Z,30.48
2022-08-24T09:50:13.671Z,32.10
2022-08-24T09:52:47.395Z,33.50
2022-08-24T09:55:32.263Z,34.32
2022-08-24T09:58:07.967Z,35.25
2022-08-24T10:00:38.074Z,36.04
2022-08-24T10:03:35.008Z,35.69
2022-08-24T10:06:16.723Z,34.08
2022-08-24T10:08:53.785Z,35.02
2022-08-24T10:11:33.182Z,34.97
2022-08-24T10:14:08.742Z,35.75
2022-08-24T10:16:41.257Z,34.74
2022-08-24T10:19:12.875Z,34.89
2022-08-24T10:21:58.015Z,35.13
2022-08-24T10:24:27.916Z,36.59
2022-08-24T10:27:05.555Z,36.05
2022-08-24T10:29:31.990Z,36.51
2022-08-24T10:32:17.161Z,38.11
2022-08-24T10:34:46.725Z,39.62
2022-08-24T10:37:19.237Z,39.17
2022-08-24T10:40:02.804Z,38.22
2022-08-24T10:43:08.598Z,37.35
2022-08-24T10:45:41.625Z,38.99
2022-08-24T10:48:08.095Z,40.86
2022-08-24T10:50:54.832Z,41.78
2022-08-24T10:53:21.528Z,41.79
2022-08-24T10:55:50.738Z,39.25
2022-08-24T10:58:26.531Z,40.96
2022-08-24T11:00:53.183Z,42.62
2022-08-24T11:03:28.666Z,42.59
2022-08-24T11:05:55.825Z,40.12
2022-08-24T11:08:23.584Z,39.89
2022-08-24T11:11:06.813Z,41.08
2022-08-24T11:13:33.444Z,41.31
2022-08-24T11:16:01.203Z,39.05
2022-08-24T11:18:57.310Z,40.00
2022-08-24T11:21:33.170Z,41.55
2022-08-24T11:24:25.834Z,42.90
2022-08-24T11:26:58.567Z,44.61
2022-08-24T11:29:31.381Z,45.03
2022-08-24T11:31:58.991Z,44.13
2022-08-24T11:34:34.112Z,42.98
2022-08-24T11:37:00.593Z,43.27
2022-08-24T11:39:37.076Z,44.27
2022-08-24T11:42:07.859Z,45.36
2022-08-24T11:44:37.359Z,46.06
2022-08-24T11:47:08.868Z,46.20
2022-08-24T11:49:35.416Z,47.11
2022-08-24T11:52:11.014Z,46.07
2022-08-24T11:54:55.851Z,47.09
2022-08-24T11:57:26.656Z,46.42
2022-08-24T11:59:53.145Z,45.37
2022-08-24T12:02:38.591Z,44.40
2022-08-24T12:05:07.284Z,46.05
2022-08-24T12:07:51.766Z,47.63
2022-08-24T12:10:37.266Z,48.62
2022-08-24T12:13:09.335Z,49.11
2022-08-24T12:15:35.809Z,49.13
2022-08-24T12:18:24.807Z,49.21
2022-08-24T12:20:51.797Z,49.12
2022-08-24T12:23:30.949Z,50.05
2022-08-24T12:26:02.857Z,49.20
2022-08-24T12:28:32.097Z,49.64
2022-08-24T12:30:59.881Z,50.07
2022-08-24T12:33:28.248Z,47.76
2022-08-24T12:35:55.805Z,45.08
2022-08-24T12:38:28.514Z,43.02
2022-08-24T12:40:54.922Z,41.69
2022-08-24T12:43:23.743Z,41.77
2022-08-24T12:45:50.253Z,44.64
2022-08-24T12:48:17.415Z,48.08
2022-08-24T12:50:52.746Z,50.79
2022-08-24T12:53:38.025Z,52.58
2022-08-24T12:56:23.699Z,53.87
2022-08-24T12:58:54.551Z,53.51
2022-08-24T13:01:25.533Z,53.54
2022-08-24T13:04:03.313Z,53.03
2022-08-24T13:06:47.032Z,54.80
2022-08-24T13:09:36.947Z,54.24
2022-08-24T13:12:24.368Z,49.08
2022-08-24T13:14:57.472Z,46.15
2022-08-24T13:17:25.326Z,47.60
2022-08-24T13:20:11.723Z,46.19
2022-08-24T13:22:40.525Z,43.99
2022-08-24T13:25:24.043Z,40.97
2022-08-24T13:28:01.068Z,39.36
2022-08-24T13:30:29.482Z,38.83
2022-08-24T13:32:58.863Z,38.25
2022-08-24T13:35:53.623Z,37.64
2022-08-24T13:38:35.346Z,36.82
2022-08-24T13:41:07.835Z,36.07
2022-08-24T13:43:52.963Z,36.01
2022-08-24T13:46:33.051Z,35.50
2022-08-24T13:49:04.424Z,35.12
2022-08-24T13:51:52.306Z,34.97
2022-08-24T13:54:27.311Z,35.09
2022-08-24T13:57:08.396Z,34.87
2022-08-24T13:59:52.795Z,34.36
2022-08-24T14:02:44.613Z,34.27
2022-08-24T14:05:29.900Z,33.99
2022-08-24T14:07:59.302Z,33.84
2022-08-24T14:10:31.833Z,33.71
2022-08-24T14:13:04.350Z,33.66
2022-08-24T14:15:45.391Z,33.50
2022-08-24T14:18:14.907Z,33.59
2022-08-24T14:20:51.777Z,33.64
2022-08-24T14:23:18.224Z,33.70
2022-08-24T14:25:44.826Z,33.60
2022-08-24T14:28:30.044Z,33.57
2022-08-24T14:31:18.149Z,33.41
2022-08-24T14:33:51.143Z,33.04
2022-08-24T14:36:21.402Z,32.85
2022-08-24T14:39:04.583Z,32.68
2022-08-24T14:41:33.978Z,32.82
2022-08-24T14:44:20.712Z,32.86
2022-08-24T14:46:52.272Z,32.92
2022-08-24T14:49:18.793Z,33.04
2022-08-24T14:51:51.519Z,33.18
2022-08-24T14:54:17.973Z,33.24
2022-08-24T14:56:44.411Z,33.33
2022-08-24T14:59:29.600Z,33.30
2022-08-24T15:02:15.761Z,33.09
2022-08-24T15:04:46.611Z,33.12
2022-08-24T15:07:32.318Z,33.22
2022-08-24T15:10:00.363Z,33.34
2022-08-24T15:12:32.804Z,33.47
2022-08-24T15:15:05.298Z,33.65
2022-08-24T15:17:36.422Z,33.77
2022-08-24T15:20:07.559Z,33.86
2022-08-24T15:22:37.946Z,33.82
2022-08-24T15:25:07.073Z,33.17
2022-08-24T15:27:48.647Z,32.94
2022-08-24T15:30:23.613Z,32.78
2022-08-24T15:33:06.335Z,32.62
2022-08-24T15:35:34.399Z,32.51
2022-08-24T15:38:21.272Z,32.30
2022-08-24T15:41:06.188Z,32.20
2022-08-24T15:43:33.600Z,31.97
2022-08-24T15:46:00.098Z,31.89
2022-08-24T15:48:26.623Z,31.94
2022-08-24T15:50:53.687Z,32.03
2022-08-24T15:53:40.143Z,32.18
2022-08-24T15:56:21.984Z,32.15
2022-08-24T15:58:48.686Z,31.97
2022-08-24T16:01:33.948Z,32.00
2022-08-24T16:04:03.538Z,32.05
2022-08-24T16:06:33.027Z,31.60
2022-08-24T16:09:01.358Z,31.54
2022-08-24T16:11:48.005Z,31.69
2022-08-24T16:14:25.317Z,31.71
2022-08-24T16:16:54.542Z,31.64
2022-08-24T16:19:25.486Z,31.38
2022-08-24T16:21:54.614Z,31.30
2022-08-24T16:24:21.236Z,31.24
2022-08-24T16:26:47.661Z,31.27
2022-08-24T16:29:32.883Z,31.12
2022-08-24T16:32:09.281Z,31.22
2022-08-24T16:34:37.130Z,31.18
2022-08-24T16:37:04.112Z,30.91
2022-08-24T16:39:30.756Z,30.68
2022-08-24T16:41:58.661Z,30.62
2022-08-24T16:44:28.065Z,30.66
2022-08-24T16:46:54.472Z,30.58
2022-08-24T16:49:20.919Z,30.38
2022-08-24T16:51:47.417Z,30.26
2022-08-24T16:54:13.923Z,30.17
2022-08-24T16:56:40.734Z,30.02
2022-08-24T16:59:07.152Z,29.81
2022-08-24T17:01:33.743Z,29.67
2022-08-24T17:04:00.361Z,29.60
2022-08-24T17:06:26.826Z,29.62
2022-08-24T17:08:53.659Z,29.57
2022-08-24T17:11:20.134Z,29.54
2022-08-24T17:13:50.358Z,29.42
2022-08-24T17:16:17.342Z,29.36
2022-08-24T17:18:43.870Z,29.27
2022-08-24T17:21:10.343Z,29.27
2022-08-24T17:23:36.806Z,29.24
2022-08-24T17:26:03.736Z,29.15
2022-08-24T17:28:30.510Z,29.08
2022-08-24T17:30:57.012Z,29.01
2022-08-24T17:33:23.645Z,28.91
2022-08-24T17:35:50.702Z,28.80
2022-08-24T17:38:17.123Z,28.68
2022-08-24T17:40:43.569Z,28.60
2022-08-24T17:43:10.580Z,28.47
2022-08-24T17:45:37.234Z,28.42
2022-08-24T17:48:03.818Z,28.37
2022-08-24T17:50:30.371Z,28.31
2022-08-24T17:53:00.230Z,28.17
2022-08-24T17:55:27.088Z,28.00
2022-08-24T17:57:53.653Z,27.89
2022-08-24T18:00:20.122Z,27.75
2022-08-24T18:02:46.612Z,27.57
2022-08-24T18:05:15.016Z,27.36
2022-08-24T18:07:53.060Z,27.13
2022-08-24T18:10:21.029Z,26.78
2022-08-24T18:12:47.678Z,26.55
2022-08-24T18:15:14.115Z,26.22
2022-08-24T18:17:41.825Z,26.02
2022-08-24T18:20:08.980Z,25.80
2022-08-24T18:22:35.606Z,25.68
2022-08-24T18:25:02.170Z,25.57
2022-08-24T18:27:29.259Z,25.44
2022-08-24T18:30:01.317Z,25.30
2022-08-24T18:32:31.134Z,25.16
2022-08-24T18:34:57.847Z,25.04
2022-08-24T18:37:24.333Z,24.92
2022-08-24T18:39:51.077Z,24.80
2022-08-24T18:42:17.521Z,24.71
2022-08-24T18:44:43.992Z,24.58
2022-08-24T18:47:10.511Z,24.47
2022-08-24T18:49:37.579Z,24.27
2022-08-24T18:52:04.285Z,24.20
2022-08-24T18:54:35.628Z,24.08
2022-08-24T18:57:02.361Z,23.99
2022-08-24T18:59:28.823Z,23.89
2022-08-24T19:02:21.634Z,23.83
2022-08-24T19:04:48.150Z,23.68
2022-08-24T19:07:14.952Z,23.58
2022-08-24T19:09:41.386Z,23.48
2022-08-24T19:12:08.579Z,23.38
2022-08-24T19:14:35.234Z,23.31
2022-08-24T19:17:01.693Z,23.23
2022-08-24T19:19:28.170Z,23.20
2022-08-24T19:21:54.635Z,23.07
2022-08-24T19:24:22.597Z,23.00
2022-08-24T19:26:49.013Z,22.91
2022-08-24T19:29:21.469Z,22.81
2022-08-24T19:31:59.879Z,22.67
2022-08-24T19:34:26.410Z,22.55
2022-08-24T19:36:56.149Z,22.45
2022-08-24T19:39:22.884Z,22.36
2022-08-24T19:41:58.327Z,22.23
2022-08-24T19:44:47.726Z,22.19
2022-08-24T19:47:18.375Z,22.14
2022-08-24T19:49:45.660Z,22.03
2022-08-24T19:52:12.150Z,22.03
2022-08-24T19:54:42.102Z,22.03
2022-08-24T19:57:27.407Z,21.92
2022-08-24T19:59:53.845Z,21.77
2022-08-24T20:02:20.327Z,21.68
2022-08-24T20:04:46.803Z,21.59
2022-08-24T20:07:14.639Z,21.57
2022-08-24T20:09:41.038Z,21.53
2022-08-24T20:12:07.612Z,21.52
2022-08-24T20:14:37.329Z,21.52
2022-08-24T20:17:04.231Z,21.48
2022-08-24T20:19:31.423Z,21.44
2022-08-24T20:21:57.930Z,21.38
2022-08-24T20:24:27.455Z,21.31
2022-08-24T20:26:53.913Z,21.28
2022-08-24T20:29:20.885Z,21.26
2022-08-24T20:31:48.534Z,21.22
2022-08-24T20:34:17.170Z,21.18
2022-08-24T20:36:45.025Z,21.15
2022-08-24T20:39:11.921Z,21.07
2022-08-24T20:41:39.069Z,21.04
2022-08-24T20:44:05.490Z,21.00
2022-08-24T20:46:32.162Z,20.97
2022-08-24T20:48:59.030Z,20.94
2022-08-24T20:51:25.671Z,20.89
2022-08-24T20:53:52.106Z,20.82
2022-08-24T20:56:28.719Z,20.79
2022-08-24T20:58:57.883Z,20.75
2022-08-24T21:01:24.890Z,20.73
2022-08-24T21:03:51.747Z,20.73
2022-08-24T21:06:18.300Z,20.64
2022-08-24T21:08:45.116Z,20.52
2022-08-24T21:11:11.639Z,20.37
2022-08-24T21:13:38.045Z,20.24
2022-08-24T21:16:05.902Z,20.11
2022-08-24T21:18:33.096Z,20.06
2022-08-24T21:21:03.797Z,19.98
2022-08-24T21:23:31.621Z,19.93
2022-08-24T21:25:58.589Z,19.92
2022-08-24T21:28:25.017Z,19.87
2022-08-24T21:30:51.424Z,19.75
2022-08-24T21:33:36.605Z,19.72
2022-08-24T21:36:03.235Z,19.62
2022-08-24T21:38:31.337Z,19.59
2022-08-24T21:40:59.882Z,19.60
2022-08-24T21:43:26.373Z,19.58
2022-08-24T21:45:52.792Z,19.55
2022-08-24T21:48:19.402Z,19.52
2022-08-24T21:50:45.865Z,19.49
2022-08-24T21:53:12.314Z,19.49
2022-08-24T21:55:41.301Z,19.52
2022-08-24T21:58:08.149Z,19.50
2022-08-24T22:00:35.659Z,19.45
2022-08-24T22:03:03.530Z,19.41
2022-08-24T22:05:30.530Z,19.37
2022-08-24T22:07:57.178Z,19.41
2022-08-24T22:10:23.793Z,19.39
2022-08-24T22:12:51.078Z,19.20
2022-08-24T22:15:18.622Z,19.15
2022-08-24T22:17:52.607Z,19.10
2022-08-24T22:20:21.647Z,19.13
2022-08-24T22:22:49.942Z,19.11
2022-08-24T22:25:16.379Z,19.02
2022-08-24T22:27:43.198Z,18.99
2022-08-24T22:30:10.528Z,19.02
2022-08-24T22:32:36.987Z,19.01
2022-08-24T22:35:03.570Z,18.96
2022-08-24T22:37:30.029Z,18.94
2022-08-24T22:39:56.575Z,18.91
2022-08-24T22:42:23.055Z,18.94
2022-08-24T22:44:49.566Z,18.91
2022-08-24T22:47:16.155Z,18.93
2022-08-24T22:49:45.561Z,18.89
2022-08-24T22:52:13.012Z,18.84
2022-08-24T22:54:39.938Z,18.77
2022-08-24T22:57:06.358Z,18.75
2022-08-24T22:59:35.692Z,18.75
2022-08-24T23:02:03.432Z,18.75
2022-08-24T23:04:32.113Z,18.73
2022-08-24T23:06:58.753Z,18.67
2022-08-24T23:09:25.218Z,18.67
2022-08-24T23:11:54.555Z,18.63
2022-08-24T23:14:21.248Z,18.65
2022-08-24T23:16:48.682Z,18.67
2022-08-24T23:19:35.362Z,18.62
2022-08-24T23:22:02.011Z,18.61
2022-08-24T23:24:29.558Z,18.61
2022-08-24T23:26:56.172Z,18.61
2022-08-24T23:29:22.652Z,18.61
2022-08-24T23:31:49.119Z,18.55
2022-08-24T23:34:15.891Z,18.56
2022-08-24T23:36:42.745Z,18.54
2022-08-24T23:39:09.467Z,18.50
2022-08-24T23:41:38.191Z,18.49
2022-08-24T23:44:05.985Z,18.45
2022-08-24T23:46:32.470Z,18.43
2022-08-24T23:49:03.291Z,18.37
2022-08-24T23:51:30.407Z,18.34
2022-08-24T23:53:57.127Z,18.34
2022-08-24T23:56:31.942Z,18.28
2022-08-24T23:58:59.459Z,18.30
